createdAt,value
2023-09-23T00:02:39.986Z,99515.78
2023-09-23T00:06:42.777Z,99527.59
2023-09-23T00:10:45.894Z,99524.91
2023-09-23T00:14:47.650Z,99549.75
2023-09-23T00:18:52.384Z,99544.50
2023-09-23T00:22:55.442Z,99552.72
2023-09-23T00:26:57.388Z,99556.25
2023-09-23T00:31:06.713Z,99556.78
2023-09-23T00:35:10.527Z,99558.69
2023-09-23T00:39:12.132Z,99577.84
2023-09-23T00:43:13.821Z,99582.16
2023-09-23T00:47:16.050Z,99582.16
2023-09-23T00:51:19.147Z,99584.91
2023-09-23T00:55:21.260Z,99593.69
2023-09-23T00:59:23.123Z,99602.31
2023-09-23T01:03:24.758Z,99591.06
2023-09-23T01:07:29.238Z,99586.38
2023-09-23T01:11:32.373Z,99588.25
2023-09-23T01:15:33.970Z,99600.78
2023-09-23T01:19:35.485Z,99603.22
2023-09-23T01:23:38.602Z,99608.88
2023-09-23T01:27:40.580Z,99624.16
2023-09-23T01:31:42.227Z,99628.31
2023-09-23T01:35:43.990Z,99628.03
2023-09-23T01:39:46.846Z,99638.56
2023-09-23T01:43:48.345Z,99636.38
2023-09-23T01:47:50.090Z,99638.19
2023-09-23T01:51:51.637Z,99643.13
2023-09-23T01:55:55.127Z,99641.66
2023-09-23T01:59:56.627Z,99647.34
2023-09-23T02:03:58.317Z,99649.19
2023-09-23T02:07:59.864Z,99658.13
2023-09-23T02:12:03.264Z,99665.50
2023-09-23T02:16:05.414Z,99666.28
2023-09-23T02:20:10.894Z,99674.56
2023-09-23T02:24:12.643Z,99670.84
2023-09-23T02:28:15.980Z,99663.97
2023-09-23T02:32:17.646Z,99671.44
2023-09-23T02:36:19.257Z,99672.34
2023-09-23T02:40:20.795Z,99678.09
2023-09-23T02:44:23.823Z,99687.78
2023-09-23T02:48:25.250Z,99694.03
2023-09-23T02:52:26.699Z,99695.63
2023-09-23T02:56:28.198Z,99694.97
2023-09-23T03:00:31.127Z,99693.84
2023-09-23T03:04:33.366Z,99692.50
2023-09-23T03:08:36.093Z,99690.72
2023-09-23T03:12:40.039Z,99698.94
2023-09-23T03:16:43.286Z,99702.91
2023-09-23T03:20:44.857Z,99705.97
2023-09-23T03:24:46.451Z,99696.50
2023-09-23T03:28:48.397Z,99699.56
2023-09-23T03:32:51.860Z,99701.00
2023-09-23T03:36:54.134Z,99694.38
2023-09-23T03:40:57.125Z,99693.56
2023-09-23T03:44:58.854Z,99702.75
2023-09-23T03:49:02.096Z,99703.16
2023-09-23T03:53:03.825Z,99703.91
2023-09-23T03:57:05.287Z,99708.84
2023-09-23T04:01:07.121Z,99720.34
2023-09-23T04:05:10.017Z,99711.41
2023-09-23T04:09:11.459Z,99703.00
2023-09-23T04:13:15.442Z,99715.59
2023-09-23T04:17:17.245Z,99722.69
2023-09-23T04:21:20.346Z,99722.13
2023-09-23T04:25:21.985Z,99728.88
2023-09-23T04:29:23.471Z,99737.38
2023-09-23T04:33:25.153Z,99737.88
2023-09-23T04:37:28.072Z,99747.38
2023-09-23T04:41:29.496Z,99748.34
2023-09-23T04:45:30.994Z,99753.91
2023-09-23T04:49:32.652Z,99750.44
2023-09-23T04:53:37.170Z,99761.00
2023-09-23T04:57:38.870Z,99761.72
2023-09-23T05:01:41.846Z,99769.84
2023-09-23T05:05:43.622Z,99775.19
2023-09-23T05:09:47.562Z,99790.22
2023-09-23T05:13:49.292Z,99793.34
2023-09-23T05:17:51.089Z,99802.06
2023-09-23T05:21:52.848Z,99807.06
2023-09-23T05:25:55.920Z,99819.41
2023-09-23T05:29:57.361Z,99821.81
2023-09-23T05:33:59.137Z,99834.25
2023-09-23T05:38:00.662Z,99833.66
2023-09-23T05:42:03.886Z,99856.72
2023-09-23T05:46:05.543Z,99851.13
2023-09-23T05:50:08.552Z,99859.41
2023-09-23T05:54:10.359Z,99871.47
2023-09-23T05:58:13.116Z,99876.28
2023-09-23T06:02:14.897Z,99875.81
2023-09-23T06:06:16.698Z,99890.81
2023-09-23T06:10:18.416Z,99897.44
2023-09-23T06:14:21.494Z,99908.13
2023-09-23T06:18:23.329Z,99902.56
2023-09-23T06:22:29.173Z,99914.06
2023-09-23T06:26:31.115Z,99928.97
2023-09-23T06:30:35.753Z,99931.09
2023-09-23T06:34:37.253Z,99941.88
2023-09-23T06:38:39.174Z,99953.16
2023-09-23T06:42:40.660Z,99953.84
2023-09-23T06:46:43.483Z,99964.78
2023-09-23T06:50:44.989Z,99974.13
2023-09-23T06:54:46.772Z,99982.84
2023-09-23T06:58:49.260Z,99986.06
2023-09-23T07:02:52.477Z,99988.28
2023-09-23T07:06:54.214Z,99976.00
2023-09-23T07:10:56.237Z,99998.97
2023-09-23T07:14:58.474Z,100010.94
2023-09-23T07:19:01.391Z,100012.72
2023-09-23T07:23:04.345Z,100015.16
2023-09-23T07:27:05.988Z,100023.28
2023-09-23T07:31:10.618Z,100028.31
2023-09-23T07:35:13.590Z,100034.16
2023-09-23T07:39:16.536Z,100043.41
2023-09-23T07:43:18.032Z,100049.56
2023-09-23T07:47:19.627Z,100057.44
2023-09-23T07:51:22.576Z,100060.44
2023-09-23T07:55:24.119Z,100066.00
2023-09-23T07:59:25.961Z,100067.50
2023-09-23T08:03:27.668Z,100076.59
2023-09-23T08:07:30.790Z,100074.16
2023-09-23T08:11:34.055Z,100078.94
2023-09-23T08:15:35.830Z,100077.69
2023-09-23T08:19:38.387Z,100083.34
2023-09-23T08:23:41.280Z,100103.09
2023-09-23T08:27:43.416Z,100094.69
2023-09-23T08:31:45.139Z,100107.97
2023-09-23T08:35:47.845Z,100115.81
2023-09-23T08:39:50.661Z,100128.78
2023-09-23T08:43:52.313Z,100136.06
2023-09-23T08:47:54.943Z,100139.13
2023-09-23T08:51:56.854Z,100132.97
2023-09-23T08:56:02.021Z,100134.91
2023-09-23T09:00:04.234Z,100139.13
2023-09-23T09:04:06.168Z,100145.88
2023-09-23T09:08:08.004Z,100157.47
2023-09-23T09:12:10.837Z,100156.78
2023-09-23T09:16:12.518Z,100165.09
2023-09-23T09:20:14.322Z,100179.38
2023-09-23T09:24:15.827Z,100189.63
2023-09-23T09:28:21.086Z,100192.63
2023-09-23T09:32:29.724Z,100183.75
2023-09-23T09:36:33.364Z,100187.38
2023-09-23T09:40:35.124Z,100188.34
2023-09-23T09:44:38.900Z,100195.81
2023-09-23T09:48:41.370Z,100184.78
2023-09-23T09:52:44.934Z,100192.34
2023-09-23T09:56:49.152Z,100211.78
2023-09-23T10:00:51.993Z,100215.50
2023-09-23T10:04:53.805Z,100216.13
2023-09-23T10:08:58.240Z,100217.06
2023-09-23T10:13:07.350Z,100200.34
2023-09-23T10:17:14.005Z,100203.47
2023-09-23T10:21:25.906Z,100220.44
2023-09-23T10:25:37.674Z,100225.38
2023-09-23T10:29:43.420Z,100195.06
2023-09-23T10:33:46.475Z,100229.56
2023-09-23T10:37:49.382Z,100233.63
2023-09-23T10:41:52.346Z,100239.53
2023-09-23T10:45:55.866Z,100252.97
2023-09-23T10:49:59.748Z,100250.50
2023-09-23T10:54:02.865Z,100246.28
2023-09-23T10:58:05.829Z,100269.16
2023-09-23T11:02:08.516Z,100258.13
2023-09-23T11:06:11.772Z,100262.25
2023-09-23T11:10:14.003Z,100267.97
2023-09-23T11:14:16.784Z,100265.16
2023-09-23T11:18:18.923Z,100284.59
2023-09-23T11:22:26.157Z,100274.00
2023-09-23T11:26:28.111Z,100281.34
2023-09-23T11:30:30.414Z,100286.63
2023-09-23T11:34:31.847Z,100280.88
2023-09-23T11:38:35.724Z,100291.09
2023-09-23T11:42:37.247Z,100292.88
2023-09-23T11:46:38.750Z,100300.25
2023-09-23T11:50:40.389Z,100304.19
2023-09-23T11:54:43.533Z,100305.38
2023-09-23T11:58:51.639Z,100315.66
2023-09-23T12:03:04.020Z,100312.63
2023-09-23T12:07:05.495Z,100320.59
2023-09-23T12:11:08.609Z,100322.56
2023-09-23T12:15:11.828Z,100322.53
2023-09-23T12:19:13.701Z,100331.94
2023-09-23T12:23:15.220Z,100342.56
2023-09-23T12:27:19.764Z,100341.28
2023-09-23T12:31:21.532Z,100348.94
2023-09-23T12:35:23.001Z,100327.19
2023-09-23T12:39:26.561Z,100351.22
2023-09-23T12:43:29.698Z,100358.19
2023-09-23T12:47:44.519Z,100358.91
2023-09-23T12:51:55.484Z,100362.16
2023-09-23T12:55:56.915Z,100370.44
2023-09-23T13:00:00.289Z,100371.91
2023-09-23T13:04:01.949Z,100382.44
2023-09-23T13:08:03.965Z,100380.66
2023-09-23T13:12:06.131Z,100377.88
2023-09-23T13:16:09.460Z,100379.66
2023-09-23T13:20:11.739Z,100377.75
2023-09-23T13:24:13.218Z,100366.28
2023-09-23T13:28:14.812Z,100371.19
2023-09-23T13:32:17.773Z,100385.84
2023-09-23T13:36:19.541Z,100385.47
2023-09-23T13:40:21.264Z,100379.69
2023-09-23T13:44:22.900Z,100390.53
2023-09-23T13:48:26.042Z,100394.75
2023-09-23T13:52:27.827Z,100394.94
2023-09-23T13:56:29.449Z,100397.84
2023-09-23T14:00:31.506Z,100391.50
2023-09-23T14:04:34.419Z,100397.50
2023-09-23T14:08:35.973Z,100393.75
2023-09-23T14:12:37.460Z,100396.69
2023-09-23T14:16:38.937Z,100401.41
2023-09-23T14:20:42.176Z,100402.25
2023-09-23T14:24:43.761Z,100402.09
2023-09-23T14:28:45.569Z,100409.06
2023-09-23T14:32:47.326Z,100419.28
2023-09-23T14:36:50.482Z,100409.41
2023-09-23T14:40:51.957Z,100406.81
2023-09-23T14:44:53.672Z,100415.69
2023-09-23T14:48:55.199Z,100421.88
2023-09-23T14:52:58.210Z,100424.56
2023-09-23T14:56:59.757Z,100422.91
2023-09-23T15:01:01.235Z,100425.34
2023-09-23T15:05:02.872Z,100433.31
2023-09-23T15:09:06.484Z,100439.19
2023-09-23T15:13:08.203Z,100443.47
2023-09-23T15:17:09.920Z,100441.81
2023-09-23T15:21:11.699Z,100457.56
2023-09-23T15:25:14.506Z,100458.38
2023-09-23T15:29:16.299Z,100464.84
2023-09-23T15:33:17.906Z,100472.22
2023-09-23T15:37:19.637Z,100479.41
2023-09-23T15:41:22.793Z,100480.19
2023-09-23T15:45:24.670Z,100489.19
2023-09-23T15:49:26.408Z,100485.13
2023-09-23T15:53:28.111Z,100496.50
2023-09-23T15:57:30.977Z,100504.03
2023-09-23T16:01:34.388Z,100499.84
2023-09-23T16:05:35.991Z,100498.97
2023-09-23T16:09:37.476Z,100512.75
2023-09-23T16:13:40.983Z,100518.69
2023-09-23T16:17:42.784Z,100518.06
2023-09-23T16:21:44.406Z,100519.59
2023-09-23T16:25:45.916Z,100532.47
2023-09-23T16:29:48.835Z,100539.41
2023-09-23T16:33:50.586Z,100533.28
2023-09-23T16:37:52.137Z,100542.09
2023-09-23T16:41:53.642Z,100535.59
2023-09-23T16:45:57.473Z,100547.84
2023-09-23T16:49:58.956Z,100553.03
2023-09-23T16:54:00.541Z,100558.78
2023-09-23T16:58:02.614Z,100569.06
2023-09-23T17:02:05.755Z,100569.72
2023-09-23T17:06:07.446Z,100592.03
2023-09-23T17:10:12.291Z,100605.09
2023-09-23T17:14:13.896Z,100614.56
2023-09-23T17:18:17.187Z,100622.47
2023-09-23T17:22:18.994Z,100633.88
2023-09-23T17:26:20.560Z,100637.28
2023-09-23T17:30:23.163Z,100632.72
2023-09-23T17:34:27.196Z,100644.03
2023-09-23T17:38:28.784Z,100646.19
2023-09-23T17:42:30.504Z,100650.13
2023-09-23T17:46:33.220Z,100662.53
2023-09-23T17:50:36.859Z,100664.16
2023-09-23T17:54:38.540Z,100663.47
2023-09-23T17:58:40.485Z,100670.69
2023-09-23T18:02:42.398Z,100680.09
2023-09-23T18:06:45.729Z,100684.41
2023-09-23T18:10:48.611Z,100687.25
2023-09-23T18:14:50.184Z,100687.94
2023-09-23T18:18:51.748Z,100696.53
2023-09-23T18:22:54.625Z,100695.81
2023-09-23T18:26:56.328Z,100702.34
2023-09-23T18:30:58.018Z,100705.88
2023-09-23T18:34:59.651Z,100717.19
2023-09-23T18:39:02.550Z,100719.22
2023-09-23T18:43:04.703Z,100728.31
2023-09-23T18:47:07.600Z,100728.75
2023-09-23T18:51:09.410Z,100747.81
2023-09-23T18:55:12.793Z,100747.75
2023-09-23T18:59:14.338Z,100756.72
2023-09-23T19:03:17.434Z,100759.44
2023-09-23T19:07:20.612Z,100764.34
2023-09-23T19:11:23.768Z,100764.50
2023-09-23T19:15:25.299Z,100766.63
2023-09-23T19:19:27.048Z,100777.94
2023-09-23T19:23:28.755Z,100759.47
2023-09-23T19:27:31.623Z,100786.97
2023-09-23T19:31:33.383Z,100802.47
2023-09-23T19:35:36.976Z,100804.66
2023-09-23T19:39:38.810Z,100816.75
2023-09-23T19:43:41.664Z,100819.72
2023-09-23T19:47:43.263Z,100820.34
2023-09-23T19:51:45.048Z,100832.06
2023-09-23T19:55:46.564Z,100827.63
2023-09-23T19:59:49.800Z,100830.47
2023-09-23T20:03:53.127Z,100827.41
2023-09-23T20:07:55.759Z,100831.72
2023-09-23T20:11:57.739Z,100840.56
2023-09-23T20:16:01.189Z,100846.47
2023-09-23T20:20:03.144Z,100854.69
2023-09-23T20:24:05.052Z,100852.28
2023-09-23T20:28:10.096Z,100867.09
2023-09-23T20:32:13.088Z,100874.25
2023-09-23T20:36:14.652Z,100871.13
2023-09-23T20:40:17.238Z,100874.06
2023-09-23T20:44:19.061Z,100878.97
2023-09-23T20:48:21.963Z,100875.81
2023-09-23T20:52:24.485Z,100877.81
2023-09-23T20:56:26.527Z,100891.63
2023-09-23T21:00:28.186Z,100894.56
2023-09-23T21:04:31.465Z,100903.91
2023-09-23T21:08:33.422Z,100908.72
2023-09-23T21:12:35.046Z,100905.91
2023-09-23T21:16:36.883Z,100909.44
2023-09-23T21:20:41.065Z,100917.59
2023-09-23T21:24:43.031Z,100919.84
2023-09-23T21:28:46.904Z,100925.25
2023-09-23T21:32:48.691Z,100933.41
2023-09-23T21:36:51.714Z,100942.28
2023-09-23T21:40:56.137Z,100927.50
2023-09-23T21:44:57.908Z,100943.28
2023-09-23T21:48:59.599Z,100948.50
2023-09-23T21:53:03.456Z,100947.31
2023-09-23T21:57:05.283Z,100959.63
2023-09-23T22:01:07.860Z,100959.09
2023-09-23T22:05:12.068Z,100960.41
2023-09-23T22:09:16.015Z,100954.13
2023-09-23T22:13:17.908Z,100960.25
2023-09-23T22:17:19.372Z,100961.53
2023-09-23T22:21:21.171Z,100967.09
2023-09-23T22:25:24.431Z,100969.06
2023-09-23T22:29:27.053Z,100975.44
2023-09-23T22:33:28.598Z,100977.72
2023-09-23T22:37:30.641Z,100977.34
2023-09-23T22:41:34.473Z,100970.53
2023-09-23T22:45:39.445Z,100979.06
2023-09-23T22:49:41.607Z,100987.09
2023-09-23T22:53:44.676Z,100980.72
2023-09-23T22:57:48.384Z,100979.09
2023-09-23T23:01:49.847Z,100980.50
2023-09-23T23:05:51.409Z,100986.59
2023-09-23T23:09:53.173Z,100984.16
2023-09-23T23:13:56.188Z,100993.81
2023-09-23T23:17:58.027Z,101005.63
2023-09-23T23:21:59.881Z,101000.97
2023-09-23T23:26:05.833Z,101013.94
2023-09-23T23:30:10.980Z,101013.78
2023-09-23T23:34:12.728Z,101009.78
2023-09-23T23:38:16.218Z,101008.09
2023-09-23T23:42:18.140Z,101004.81
2023-09-23T23:46:21.870Z,101007.28
2023-09-23T23:50:23.935Z,101018.28
2023-09-23T23:54:25.526Z,101015.38
2023-09-23T23:58:27.328Z,101022.00
